sensor_id;sensor_type;location;lat;lon;timestamp;temperature;humidity
8662;DHT22;29684;47.722;9.388;2024-02-15T00:00:54;7.70;99.90
8662;DHT22;29684;47.722;9.388;2024-02-15T00:03:38;7.70;99.90
8662;DHT22;29684;47.722;9.388;2024-02-15T00:06:22;7.60;99.90
8662;DHT22;29684;47.722;9.388;2024-02-15T00:09:06;7.50;99.90
8662;DHT22;29684;47.722;9.388;2024-02-15T00:11:50;7.40;99.90
8662;DHT22;29684;47.722;9.388;2024-02-15T00:14:34;7.50;99.90
8662;DHT22;29684;47.722;9.388;2024-02-15T00:17:19;6.90;99.90
8662;DHT22;29684;47.722;9.388;2024-02-15T00:20:03;8.20;99.90
8662;DHT22;29684;47.722;9.388;2024-02-15T00:22:53;7.20;99.90
8662;DHT22;29684;47.722;9.388;2024-02-15T00:25:40;7.10;99.90
8662;DHT22;29684;47.722;9.388;2024-02-15T00:28:28;7.00;99.90
8662;DHT22;29684;47.722;9.388;2024-02-15T00:31:12;8.00;99.90
8662;DHT22;29684;47.722;9.388;2024-02-15T00:33:56;8.50;99.90
8662;DHT22;29684;47.722;9.388;2024-02-15T00:36:44;7.00;99.90
8662;DHT22;29684;47.722;9.388;2024-02-15T00:39:28;7.00;99.90
8662;DHT22;29684;47.722;9.388;2024-02-15T00:42:12;7.40;99.90
8662;DHT22;29684;47.722;9.388;2024-02-15T00:44:56;6.70;99.90
8662;DHT22;29684;47.722;9.388;2024-02-15T00:47:41;6.90;99.90
8662;DHT22;29684;47.722;9.388;2024-02-15T00:50:25;6.90;99.90
8662;DHT22;29684;47.722;9.388;2024-02-15T00:53:10;8.00;99.90
8662;DHT22;29684;47.722;9.388;2024-02-15T00:55:55;7.10;99.90
8662;DHT22;29684;47.722;9.388;2024-02-15T00:58:40;6.70;99.90
8662;DHT22;29684;47.722;9.388;2024-02-15T01:01:24;6.60;99.90
8662;DHT22;29684;47.722;9.388;2024-02-15T01:04:08;6.50;99.90
8662;DHT22;29684;47.722;9.388;2024-02-15T01:06:52;6.60;99.90
8662;DHT22;29684;47.722;9.388;2024-02-15T01:09:36;6.50;99.90
8662;DHT22;29684;47.722;9.388;2024-02-15T01:12:20;6.50;99.90
8662;DHT22;29684;47.722;9.388;2024-02-15T01:15:05;6.50;99.90
8662;DHT22;29684;47.722;9.388;2024-02-15T01:17:50;6.50;99.90
8662;DHT22;29684;47.722;9.388;2024-02-15T01:20:34;6.40;99.90
8662;DHT22;29684;47.722;9.388;2024-02-15T01:23:20;6.40;99.90
8662;DHT22;29684;47.722;9.388;2024-02-15T01:26:06;6.30;99.90
8662;DHT22;29684;47.722;9.388;2024-02-15T01:28:50;6.30;99.90
8662;DHT22;29684;47.722;9.388;2024-02-15T01:31:34;6.20;99.90
8662;DHT22;29684;47.722;9.388;2024-02-15T01:34:18;7.40;99.90
8662;DHT22;29684;47.722;9.388;2024-02-15T01:37:02;6.70;99.90
8662;DHT22;29684;47.722;9.388;2024-02-15T01:39:47;6.00;99.90
8662;DHT22;29684;47.722;9.388;2024-02-15T01:42:32;7.00;99.90
8662;DHT22;29684;47.722;9.388;2024-02-15T01:45:16;5.80;99.90
8662;DHT22;29684;47.722;9.388;2024-02-15T01:48:02;5.80;99.90
8662;DHT22;29684;47.722;9.388;2024-02-15T01:50:48;5.70;99.90
8662;DHT22;29684;47.722;9.388;2024-02-15T01:53:32;7.60;99.90
8662;DHT22;29684;47.722;9.388;2024-02-15T01:56:17;5.60;99.90
8662;DHT22;29684;47.722;9.388;2024-02-15T01:59:01;5.60;99.90
8662;DHT22;29684;47.722;9.388;2024-02-15T02:01:46;5.70;99.90
8662;DHT22;29684;47.722;9.388;2024-02-15T02:04:30;5.60;99.90
8662;DHT22;29684;47.722;9.388;2024-02-15T02:07:15;7.20;99.90
8662;DHT22;29684;47.722;9.388;2024-02-15T02:10:00;5.60;99.90
8662;DHT22;29684;47.722;9.388;2024-02-15T02:12:44;5.50;99.90
8662;DHT22;29684;47.722;9.388;2024-02-15T02:15:28;5.40;99.90
8662;DHT22;29684;47.722;9.388;2024-02-15T02:18:15;5.40;99.90
8662;DHT22;29684;47.722;9.388;2024-02-15T02:21:00;5.30;99.90
8662;DHT22;29684;47.722;9.388;2024-02-15T02:23:48;5.20;99.90
8662;DHT22;29684;47.722;9.388;2024-02-15T02:26:34;5.20;99.90
8662;DHT22;29684;47.722;9.388;2024-02-15T02:29:21;5.10;99.90
8662;DHT22;29684;47.722;9.388;2024-02-15T02:32:05;5.10;99.90
8662;DHT22;29684;47.722;9.388;2024-02-15T02:34:51;5.10;99.90
8662;DHT22;29684;47.722;9.388;2024-02-15T02:37:42;4.90;99.90
8662;DHT22;29684;47.722;9.388;2024-02-15T02:40:26;4.80;99.90
8662;DHT22;29684;47.722;9.388;2024-02-15T02:43:10;4.80;99.90
8662;DHT22;29684;47.722;9.388;2024-02-15T02:45:55;6.70;99.90
8662;DHT22;29684;47.722;9.388;2024-02-15T02:48:39;4.60;99.90
8662;DHT22;29684;47.722;9.388;2024-02-15T02:51:23;6.70;99.90
8662;DHT22;29684;47.722;9.388;2024-02-15T02:54:08;4.70;99.90
8662;DHT22;29684;47.722;9.388;2024-02-15T02:56:52;4.60;99.90
8662;DHT22;29684;47.722;9.388;2024-02-15T02:59:36;4.70;99.90
8662;DHT22;29684;47.722;9.388;2024-02-15T03:02:24;4.60;99.90
8662;DHT22;29684;47.722;9.388;2024-02-15T03:05:08;3.80;99.90
8662;DHT22;29684;47.722;9.388;2024-02-15T03:07:55;4.50;99.90
8662;DHT22;29684;47.722;9.388;2024-02-15T03:10:39;4.50;99.90
8662;DHT22;29684;47.722;9.388;2024-02-15T03:13:24;4.40;99.90
8662;DHT22;29684;47.722;9.388;2024-02-15T03:16:08;6.10;99.90
8662;DHT22;29684;47.722;9.388;2024-02-15T03:18:53;3.80;99.90
8662;DHT22;29684;47.722;9.388;2024-02-15T03:21:37;4.40;99.90
8662;DHT22;29684;47.722;9.388;2024-02-15T03:24:21;4.90;99.90
8662;DHT22;29684;47.722;9.388;2024-02-15T03:27:06;4.40;99.90
8662;DHT22;29684;47.722;9.388;2024-02-15T03:29:54;4.40;99.90
8662;DHT22;29684;47.722;9.388;2024-02-15T03:32:41;4.40;99.90
8662;DHT22;29684;47.722;9.388;2024-02-15T03:35:26;6.50;99.90
8662;DHT22;29684;47.722;9.388;2024-02-15T03:38:12;6.40;99.90
8662;DHT22;29684;47.722;9.388;2024-02-15T03:40:56;4.50;99.90
8662;DHT22;29684;47.722;9.388;2024-02-15T03:43:40;4.50;99.90
8662;DHT22;29684;47.722;9.388;2024-02-15T03:46:24;6.40;99.90
8662;DHT22;29684;47.722;9.388;2024-02-15T03:49:08;4.50;99.90
8662;DHT22;29684;47.722;9.388;2024-02-15T03:51:55;4.30;99.90
8662;DHT22;29684;47.722;9.388;2024-02-15T03:54:39;4.30;99.90
8662;DHT22;29684;47.722;9.388;2024-02-15T03:57:27;4.10;99.90
8662;DHT22;29684;47.722;9.388;2024-02-15T04:00:13;5.90;99.90
8662;DHT22;29684;47.722;9.388;2024-02-15T04:03:04;4.00;99.90
8662;DHT22;29684;47.722;9.388;2024-02-15T04:05:49;3.90;99.90
8662;DHT22;29684;47.722;9.388;2024-02-15T04:08:34;3.80;99.90
8662;DHT22;29684;47.722;9.388;2024-02-15T04:11:19;3.80;99.90
8662;DHT22;29684;47.722;9.388;2024-02-15T04:14:04;3.90;99.90
8662;DHT22;29684;47.722;9.388;2024-02-15T04:16:48;3.80;99.90
8662;DHT22;29684;47.722;9.388;2024-02-15T04:19:33;3.90;99.90
8662;DHT22;29684;47.722;9.388;2024-02-15T04:22:17;3.90;99.90
8662;DHT22;29684;47.722;9.388;2024-02-15T04:25:01;2.10;99.90
8662;DHT22;29684;47.722;9.388;2024-02-15T04:27:46;3.80;99.90
8662;DHT22;29684;47.722;9.388;2024-02-15T04:30:31;3.70;99.90
8662;DHT22;29684;47.722;9.388;2024-02-15T04:33:15;3.50;99.90
8662;DHT22;29684;47.722;9.388;2024-02-15T04:36:00;3.50;99.90
8662;DHT22;29684;47.722;9.388;2024-02-15T04:38:51;3.50;99.90
8662;DHT22;29684;47.722;9.388;2024-02-15T04:41:35;3.60;99.90
8662;DHT22;29684;47.722;9.388;2024-02-15T04:44:19;3.60;99.90
8662;DHT22;29684;47.722;9.388;2024-02-15T04:47:11;3.60;99.90
8662;DHT22;29684;47.722;9.388;2024-02-15T04:49:55;3.60;99.90
8662;DHT22;29684;47.722;9.388;2024-02-15T04:52:39;3.70;99.90
8662;DHT22;29684;47.722;9.388;2024-02-15T04:55:23;3.40;99.90
8662;DHT22;29684;47.722;9.388;2024-02-15T04:58:10;4.70;99.90
8662;DHT22;29684;47.722;9.388;2024-02-15T05:00:54;3.40;99.90
8662;DHT22;29684;47.722;9.388;2024-02-15T05:03:44;3.50;99.90
8662;DHT22;29684;47.722;9.388;2024-02-15T05:06:28;3.40;99.90
8662;DHT22;29684;47.722;9.388;2024-02-15T05:09:13;3.50;99.90
8662;DHT22;29684;47.722;9.388;2024-02-15T05:12:00;3.60;99.90
8662;DHT22;29684;47.722;9.388;2024-02-15T05:14:46;3.60;99.90
8662;DHT22;29684;47.722;9.388;2024-02-15T05:17:30;5.60;99.90
8662;DHT22;29684;47.722;9.388;2024-02-15T05:20:15;3.40;99.90
8662;DHT22;29684;47.722;9.388;2024-02-15T05:22:59;3.30;99.90
8662;DHT22;29684;47.722;9.388;2024-02-15T05:25:44;3.20;99.90
8662;DHT22;29684;47.722;9.388;2024-02-15T05:28:29;3.10;99.90
8662;DHT22;29684;47.722;9.388;2024-02-15T05:31:13;3.20;99.90
8662;DHT22;29684;47.722;9.388;2024-02-15T05:34:01;3.30;99.90
8662;DHT22;29684;47.722;9.388;2024-02-15T05:36:45;3.40;99.90
8662;DHT22;29684;47.722;9.388;2024-02-15T05:39:32;3.70;99.90
8662;DHT22;29684;47.722;9.388;2024-02-15T05:42:16;3.10;99.90
8662;DHT22;29684;47.722;9.388;2024-02-15T05:48:13;3.00;99.90
8662;DHT22;29684;47.722;9.388;2024-02-15T05:50:57;3.00;99.90
8662;DHT22;29684;47.722;9.388;2024-02-15T05:53:43;2.90;99.90
8662;DHT22;29684;47.722;9.388;2024-02-15T05:56:28;3.00;99.90
8662;DHT22;29684;47.722;9.388;2024-02-15T05:59:13;3.10;99.90
8662;DHT22;29684;47.722;9.388;2024-02-15T06:01:59;3.10;99.90
8662;DHT22;29684;47.722;9.388;2024-02-15T06:04:43;3.20;99.90
8662;DHT22;29684;47.722;9.388;2024-02-15T06:07:27;3.30;99.90
8662;DHT22;29684;47.722;9.388;2024-02-15T06:10:13;5.40;99.90
8662;DHT22;29684;47.722;9.388;2024-02-15T06:12:58;3.10;99.90
8662;DHT22;29684;47.722;9.388;2024-02-15T06:15:43;3.00;99.90
8662;DHT22;29684;47.722;9.388;2024-02-15T06:18:28;3.00;99.90
8662;DHT22;29684;47.722;9.388;2024-02-15T06:21:13;2.90;99.90
8662;DHT22;29684;47.722;9.388;2024-02-15T06:23:57;2.80;99.90
8662;DHT22;29684;47.722;9.388;2024-02-15T06:26:41;2.90;99.90
8662;DHT22;29684;47.722;9.388;2024-02-15T06:29:26;3.10;99.90
8662;DHT22;29684;47.722;9.388;2024-02-15T06:32:29;3.10;99.90
8662;DHT22;29684;47.722;9.388;2024-02-15T06:35:32;3.10;99.90
8662;DHT22;29684;47.722;9.388;2024-02-15T06:38:35;3.00;99.90
8662;DHT22;29684;47.722;9.388;2024-02-15T06:41:38;3.00;99.90
8662;DHT22;29684;47.722;9.388;2024-02-15T06:44:23;2.90;99.90
8662;DHT22;29684;47.722;9.388;2024-02-15T06:47:08;2.90;99.90
8662;DHT22;29684;47.722;9.388;2024-02-15T06:49:54;2.70;99.90
8662;DHT22;29684;47.722;9.388;2024-02-15T06:52:40;2.80;99.90
8662;DHT22;29684;47.722;9.388;2024-02-15T06:55:25;2.90;99.90
8662;DHT22;29684;47.722;9.388;2024-02-15T06:58:09;2.90;99.90
8662;DHT22;29684;47.722;9.388;2024-02-15T07:00:53;2.90;99.90
8662;DHT22;29684;47.722;9.388;2024-02-15T07:03:37;3.00;99.90
8662;DHT22;29684;47.722;9.388;2024-02-15T07:06:23;3.50;99.90
8662;DHT22;29684;47.722;9.388;2024-02-15T07:09:07;2.80;99.90
8662;DHT22;29684;47.722;9.388;2024-02-15T07:11:52;2.80;99.90
8662;DHT22;29684;47.722;9.388;2024-02-15T07:14:36;3.10;99.90
8662;DHT22;29684;47.722;9.388;2024-02-15T07:17:20;3.20;99.90
8662;DHT22;29684;47.722;9.388;2024-02-15T07:20:05;3.20;99.90
8662;DHT22;29684;47.722;9.388;2024-02-15T07:22:50;3.20;99.90
8662;DHT22;29684;47.722;9.388;2024-02-15T07:25:34;3.20;99.90
8662;DHT22;29684;47.722;9.388;2024-02-15T07:28:18;3.40;99.90
8662;DHT22;29684;47.722;9.388;2024-02-15T07:31:03;3.70;99.90
8662;DHT22;29684;47.722;9.388;2024-02-15T07:33:51;3.70;99.90
8662;DHT22;29684;47.722;9.388;2024-02-15T07:36:35;3.50;99.90
8662;DHT22;29684;47.722;9.388;2024-02-15T07:39:20;4.70;99.90
8662;DHT22;29684;47.722;9.388;2024-02-15T07:42:09;3.50;99.90
8662;DHT22;29684;47.722;9.388;2024-02-15T07:44:53;3.50;99.90
8662;DHT22;29684;47.722;9.388;2024-02-15T07:47:37;3.50;99.90
8662;DHT22;29684;47.722;9.388;2024-02-15T07:50:22;3.80;99.90
8662;DHT22;29684;47.722;9.388;2024-02-15T07:53:06;3.90;99.90
8662;DHT22;29684;47.722;9.388;2024-02-15T07:55:51;3.90;99.90
8662;DHT22;29684;47.722;9.388;2024-02-15T07:58:38;3.90;99.90
8662;DHT22;29684;47.722;9.388;2024-02-15T08:01:23;5.20;99.90
8662;DHT22;29684;47.722;9.388;2024-02-15T08:04:08;4.10;99.90
8662;DHT22;29684;47.722;9.388;2024-02-15T08:06:53;4.20;99.90
8662;DHT22;29684;47.722;9.388;2024-02-15T08:09:38;4.30;99.90
8662;DHT22;29684;47.722;9.388;2024-02-15T08:12:22;5.00;99.90
8662;DHT22;29684;47.722;9.388;2024-02-15T08:15:06;4.60;99.90
8662;DHT22;29684;47.722;9.388;2024-02-15T08:17:55;4.90;99.90
8662;DHT22;29684;47.722;9.388;2024-02-15T08:20:39;5.20;99.90
8662;DHT22;29684;47.722;9.388;2024-02-15T08:23:24;5.40;99.90
8662;DHT22;29684;47.722;9.388;2024-02-15T08:26:10;6.10;99.90
8662;DHT22;29684;47.722;9.388;2024-02-15T08:28:57;5.80;99.90
8662;DHT22;29684;47.722;9.388;2024-02-15T08:31:41;6.10;99.90
8662;DHT22;29684;47.722;9.388;2024-02-15T08:34:26;6.20;99.90
8662;DHT22;29684;47.722;9.388;2024-02-15T08:37:10;6.40;99.90
8662;DHT22;29684;47.722;9.388;2024-02-15T08:39:55;6.70;99.90
8662;DHT22;29684;47.722;9.388;2024-02-15T08:42:40;6.90;99.90
8662;DHT22;29684;47.722;9.388;2024-02-15T08:45:25;7.20;99.90
8662;DHT22;29684;47.722;9.388;2024-02-15T08:48:09;7.50;99.90
8662;DHT22;29684;47.722;9.388;2024-02-15T08:50:53;7.70;99.90
8662;DHT22;29684;47.722;9.388;2024-02-15T08:53:38;8.00;99.90
8662;DHT22;29684;47.722;9.388;2024-02-15T08:56:22;7.90;99.90
8662;DHT22;29684;47.722;9.388;2024-02-15T08:59:09;9.50;99.90
8662;DHT22;29684;47.722;9.388;2024-02-15T09:01:53;8.50;99.90
8662;DHT22;29684;47.722;9.388;2024-02-15T09:04:38;8.90;99.90
8662;DHT22;29684;47.722;9.388;2024-02-15T09:07:24;9.10;99.90
8662;DHT22;29684;47.722;9.388;2024-02-15T09:10:09;9.40;99.90
8662;DHT22;29684;47.722;9.388;2024-02-15T09:12:57;9.50;99.90
8662;DHT22;29684;47.722;9.388;2024-02-15T09:15:41;9.80;99.90
8662;DHT22;29684;47.722;9.388;2024-02-15T09:18:25;10.00;99.90
8662;DHT22;29684;47.722;9.388;2024-02-15T09:21:09;10.20;99.90
8662;DHT22;29684;47.722;9.388;2024-02-15T09:23:54;10.40;99.90
8662;DHT22;29684;47.722;9.388;2024-02-15T09:26:38;10.60;99.90
8662;DHT22;29684;47.722;9.388;2024-02-15T09:29:23;10.60;99.90
8662;DHT22;29684;47.722;9.388;2024-02-15T09:32:08;10.80;99.90
8662;DHT22;29684;47.722;9.388;2024-02-15T09:34:52;10.90;99.90
8662;DHT22;29684;47.722;9.388;2024-02-15T09:37:42;11.10;99.90
8662;DHT22;29684;47.722;9.388;2024-02-15T09:40:27;11.10;99.90
8662;DHT22;29684;47.722;9.388;2024-02-15T09:43:13;11.30;99.90
8662;DHT22;29684;47.722;9.388;2024-02-15T09:45:57;11.30;99.90
8662;DHT22;29684;47.722;9.388;2024-02-15T09:48:45;11.40;99.90
8662;DHT22;29684;47.722;9.388;2024-02-15T09:51:33;11.40;99.90
8662;DHT22;29684;47.722;9.388;2024-02-15T09:54:17;11.50;99.90
8662;DHT22;29684;47.722;9.388;2024-02-15T09:57:07;11.70;99.90
8662;DHT22;29684;47.722;9.388;2024-02-15T09:59:51;11.80;99.90
8662;DHT22;29684;47.722;9.388;2024-02-15T10:02:36;12.00;99.90
8662;DHT22;29684;47.722;9.388;2024-02-15T10:05:22;12.00;99.90
8662;DHT22;29684;47.722;9.388;2024-02-15T10:08:07;12.40;99.90
8662;DHT22;29684;47.722;9.388;2024-02-15T10:11:08;12.90;99.90
8662;DHT22;29684;47.722;9.388;2024-02-15T10:13:53;13.00;99.90
8662;DHT22;29684;47.722;9.388;2024-02-15T10:16:38;13.60;99.90
8662;DHT22;29684;47.722;9.388;2024-02-15T10:19:23;13.70;99.90
8662;DHT22;29684;47.722;9.388;2024-02-15T10:22:11;14.20;99.90
8662;DHT22;29684;47.722;9.388;2024-02-15T10:25:12;14.60;99.90
8662;DHT22;29684;47.722;9.388;2024-02-15T10:28:08;14.80;99.90
8662;DHT22;29684;47.722;9.388;2024-02-15T10:30:53;14.90;99.90
8662;DHT22;29684;47.722;9.388;2024-02-15T10:33:38;15.20;99.90
8662;DHT22;29684;47.722;9.388;2024-02-15T10:36:24;15.10;99.90
8662;DHT22;29684;47.722;9.388;2024-02-15T10:39:16;15.00;99.90
8662;DHT22;29684;47.722;9.388;2024-02-15T10:42:03;14.90;99.90
8662;DHT22;29684;47.722;9.388;2024-02-15T10:44:51;14.80;99.90
8662;DHT22;29684;47.722;9.388;2024-02-15T10:47:37;14.60;99.90
8662;DHT22;29684;47.722;9.388;2024-02-15T10:50:24;14.70;99.90
8662;DHT22;29684;47.722;9.388;2024-02-15T10:53:27;14.70;99.90
8662;DHT22;29684;47.722;9.388;2024-02-15T10:56:26;14.80;99.90
8662;DHT22;29684;47.722;9.388;2024-02-15T10:59:17;14.90;99.90
8662;DHT22;29684;47.722;9.388;2024-02-15T11:05:05;15.00;99.90
8662;DHT22;29684;47.722;9.388;2024-02-15T11:07:54;15.10;99.90
8662;DHT22;29684;47.722;9.388;2024-02-15T11:10:41;14.90;99.90
8662;DHT22;29684;47.722;9.388;2024-02-15T11:13:27;15.00;99.90
8662;DHT22;29684;47.722;9.388;2024-02-15T11:16:40;15.00;99.90
8662;DHT22;29684;47.722;9.388;2024-02-15T11:22:25;14.80;99.90
8662;DHT22;29684;47.722;9.388;2024-02-15T11:25:10;14.20;99.90
8662;DHT22;29684;47.722;9.388;2024-02-15T11:27:56;14.20;99.90
8662;DHT22;29684;47.722;9.388;2024-02-15T11:30:40;14.50;99.90
8662;DHT22;29684;47.722;9.388;2024-02-15T11:33:31;15.50;99.90
8662;DHT22;29684;47.722;9.388;2024-02-15T11:36:15;16.70;99.90
8662;DHT22;29684;47.722;9.388;2024-02-15T11:39:39;17.40;99.90
8662;DHT22;29684;47.722;9.388;2024-02-15T11:42:25;17.60;99.90
8662;DHT22;29684;47.722;9.388;2024-02-15T11:45:12;17.90;99.90
8662;DHT22;29684;47.722;9.388;2024-02-15T11:47:57;17.90;99.90
8662;DHT22;29684;47.722;9.388;2024-02-15T11:50:41;17.10;99.90
8662;DHT22;29684;47.722;9.388;2024-02-15T11:53:26;16.30;99.90
8662;DHT22;29684;47.722;9.388;2024-02-15T11:56:09;16.30;99.90
8662;DHT22;29684;47.722;9.388;2024-02-15T11:59:05;16.70;99.90
8662;DHT22;29684;47.722;9.388;2024-02-15T12:01:56;16.60;99.90
8662;DHT22;29684;47.722;9.388;2024-02-15T12:05:00;17.00;99.90
8662;DHT22;29684;47.722;9.388;2024-02-15T12:08:03;17.80;99.90
8662;DHT22;29684;47.722;9.388;2024-02-15T12:11:06;18.20;99.90
8662;DHT22;29684;47.722;9.388;2024-02-15T12:14:12;18.80;99.90
8662;DHT22;29684;47.722;9.388;2024-02-15T12:17:16;19.10;99.90
8662;DHT22;29684;47.722;9.388;2024-02-15T13:18:25;19.50;99.90
8662;DHT22;29684;47.722;9.388;2024-02-15T13:21:12;21.50;98.10
8662;DHT22;29684;47.722;9.388;2024-02-15T13:23:56;21.80;99.00
8662;DHT22;29684;47.722;9.388;2024-02-15T13:26:41;21.30;99.20
8662;DHT22;29684;47.722;9.388;2024-02-15T13:29:25;21.10;99.60
8662;DHT22;29684;47.722;9.388;2024-02-15T13:32:09;20.30;99.90
8662;DHT22;29684;47.722;9.388;2024-02-15T13:34:56;19.20;99.90
8662;DHT22;29684;47.722;9.388;2024-02-15T13:40:31;18.90;99.90
8662;DHT22;29684;47.722;9.388;2024-02-15T13:43:16;19.30;99.90
8662;DHT22;29684;47.722;9.388;2024-02-15T13:46:00;19.60;99.90
8662;DHT22;29684;47.722;9.388;2024-02-15T13:48:45;20.40;99.40
8662;DHT22;29684;47.722;9.388;2024-02-15T13:51:29;20.90;99.20
8662;DHT22;29684;47.722;9.388;2024-02-15T14:49:42;21.20;98.50
8662;DHT22;29684;47.722;9.388;2024-02-15T14:52:26;18.20;98.70
8662;DHT22;29684;47.722;9.388;2024-02-15T14:55:11;17.70;99.30
8662;DHT22;29684;47.722;9.388;2024-02-15T14:57:55;17.00;99.90
8662;DHT22;29684;47.722;9.388;2024-02-15T15:00:40;16.90;99.70
8662;DHT22;29684;47.722;9.388;2024-02-15T15:03:25;16.70;99.90
8662;DHT22;29684;47.722;9.388;2024-02-15T15:06:10;16.40;99.90
8662;DHT22;29684;47.722;9.388;2024-02-15T15:09:13;16.20;99.90
8662;DHT22;29684;47.722;9.388;2024-02-15T15:12:16;15.90;99.90
8662;DHT22;29684;47.722;9.388;2024-02-15T15:15:19;15.80;99.90
8662;DHT22;29684;47.722;9.388;2024-02-15T15:18:04;15.30;99.90
8662;DHT22;29684;47.722;9.388;2024-02-15T15:20:48;15.30;99.90
8662;DHT22;29684;47.722;9.388;2024-02-15T15:23:32;15.00;99.90
8662;DHT22;29684;47.722;9.388;2024-02-15T15:26:20;14.80;99.90
8662;DHT22;29684;47.722;9.388;2024-02-15T15:29:05;15.00;99.90
8662;DHT22;29684;47.722;9.388;2024-02-15T15:31:50;15.00;99.90
8662;DHT22;29684;47.722;9.388;2024-02-15T15:34:35;14.80;99.90
8662;DHT22;29684;47.722;9.388;2024-02-15T15:37:21;14.70;99.90
8662;DHT22;29684;47.722;9.388;2024-02-15T15:40:07;14.60;99.90
8662;DHT22;29684;47.722;9.388;2024-02-15T15:42:52;14.30;99.90
8662;DHT22;29684;47.722;9.388;2024-02-15T15:45:38;14.30;99.90
8662;DHT22;29684;47.722;9.388;2024-02-15T15:48:22;14.30;99.90
8662;DHT22;29684;47.722;9.388;2024-02-15T15:51:07;14.20;99.90
8662;DHT22;29684;47.722;9.388;2024-02-15T15:53:53;14.10;99.90
8662;DHT22;29684;47.722;9.388;2024-02-15T15:56:38;13.90;99.90
8662;DHT22;29684;47.722;9.388;2024-02-15T15:59:22;13.90;99.90
8662;DHT22;29684;47.722;9.388;2024-02-15T16:02:06;13.80;99.90
8662;DHT22;29684;47.722;9.388;2024-02-15T16:04:50;13.70;99.90
8662;DHT22;29684;47.722;9.388;2024-02-15T16:07:41;13.60;99.90
8662;DHT22;29684;47.722;9.388;2024-02-15T16:10:25;13.50;99.90
8662;DHT22;29684;47.722;9.388;2024-02-15T16:13:12;13.30;99.90
8662;DHT22;29684;47.722;9.388;2024-02-15T16:15:57;13.20;99.90
8662;DHT22;29684;47.722;9.388;2024-02-15T16:18:41;13.00;99.90
8662;DHT22;29684;47.722;9.388;2024-02-15T16:21:26;12.80;99.90
8662;DHT22;29684;47.722;9.388;2024-02-15T16:24:10;12.70;99.90
8662;DHT22;29684;47.722;9.388;2024-02-15T16:26:55;12.60;99.90
8662;DHT22;29684;47.722;9.388;2024-02-15T16:29:39;12.50;99.90
8662;DHT22;29684;47.722;9.388;2024-02-15T16:35:09;12.40;99.90
8662;DHT22;29684;47.722;9.388;2024-02-15T16:38:01;12.20;99.90
8662;DHT22;29684;47.722;9.388;2024-02-15T16:40:46;12.10;99.90
8662;DHT22;29684;47.722;9.388;2024-02-15T16:43:30;12.10;99.90
8662;DHT22;29684;47.722;9.388;2024-02-15T16:46:15;12.00;99.90
8662;DHT22;29684;47.722;9.388;2024-02-15T16:48:59;11.90;99.90
8662;DHT22;29684;47.722;9.388;2024-02-15T16:51:44;11.90;99.90
8662;DHT22;29684;47.722;9.388;2024-02-15T16:54:28;11.90;99.90
8662;DHT22;29684;47.722;9.388;2024-02-15T16:57:12;11.90;99.90
8662;DHT22;29684;47.722;9.388;2024-02-15T16:59:56;11.80;99.90
8662;DHT22;29684;47.722;9.388;2024-02-15T17:02:41;11.70;99.90
8662;DHT22;29684;47.722;9.388;2024-02-15T17:05:27;11.90;99.90
8662;DHT22;29684;47.722;9.388;2024-02-15T17:08:11;11.90;99.90
8662;DHT22;29684;47.722;9.388;2024-02-15T17:10:56;11.80;99.90
8662;DHT22;29684;47.722;9.388;2024-02-15T17:13:40;11.90;99.90
8662;DHT22;29684;47.722;9.388;2024-02-15T17:16:28;11.70;99.90
8662;DHT22;29684;47.722;9.388;2024-02-15T17:19:13;11.70;99.90
8662;DHT22;29684;47.722;9.388;2024-02-15T17:21:57;11.50;99.90
8662;DHT22;29684;47.722;9.388;2024-02-15T17:24:41;11.50;99.90
8662;DHT22;29684;47.722;9.388;2024-02-15T17:27:25;11.50;99.90
8662;DHT22;29684;47.722;9.388;2024-02-15T17:30:11;11.40;99.90
8662;DHT22;29684;47.722;9.388;2024-02-15T17:32:56;11.40;99.90
8662;DHT22;29684;47.722;9.388;2024-02-15T17:35:40;11.30;99.90
8662;DHT22;29684;47.722;9.388;2024-02-15T17:38:25;11.10;99.90
8662;DHT22;29684;47.722;9.388;2024-02-15T17:41:09;11.00;99.90
8662;DHT22;29684;47.722;9.388;2024-02-15T17:43:55;10.90;99.90
8662;DHT22;29684;47.722;9.388;2024-02-15T17:46:43;10.80;99.90
8662;DHT22;29684;47.722;9.388;2024-02-15T17:49:27;10.80;99.90
8662;DHT22;29684;47.722;9.388;2024-02-15T17:52:13;10.70;99.90
8662;DHT22;29684;47.722;9.388;2024-02-15T17:54:57;10.70;99.90
8662;DHT22;29684;47.722;9.388;2024-02-15T17:57:45;10.60;99.90
8662;DHT22;29684;47.722;9.388;2024-02-15T18:00:29;10.50;99.90
8662;DHT22;29684;47.722;9.388;2024-02-15T18:03:14;10.60;99.90
8662;DHT22;29684;47.722;9.388;2024-02-15T18:05:59;10.50;99.90
8662;DHT22;29684;47.722;9.388;2024-02-15T18:08:43;10.40;99.90
8662;DHT22;29684;47.722;9.388;2024-02-15T18:11:27;10.40;99.90
8662;DHT22;29684;47.722;9.388;2024-02-15T18:14:12;10.30;99.90
8662;DHT22;29684;47.722;9.388;2024-02-15T18:16:56;10.30;99.90
8662;DHT22;29684;47.722;9.388;2024-02-15T18:19:41;10.20;99.90
8662;DHT22;29684;47.722;9.388;2024-02-15T18:22:25;10.20;99.90
8662;DHT22;29684;47.722;9.388;2024-02-15T18:25:12;10.10;99.90
8662;DHT22;29684;47.722;9.388;2024-02-15T18:27:56;10.00;99.90
8662;DHT22;29684;47.722;9.388;2024-02-15T18:30:40;9.70;99.90
8662;DHT22;29684;47.722;9.388;2024-02-15T18:33:31;9.60;99.90
8662;DHT22;29684;47.722;9.388;2024-02-15T18:36:16;9.50;99.90
8662;DHT22;29684;47.722;9.388;2024-02-15T18:39:02;9.50;99.90
8662;DHT22;29684;47.722;9.388;2024-02-15T18:41:47;9.50;99.90
8662;DHT22;29684;47.722;9.388;2024-02-15T18:44:33;9.30;99.90
8662;DHT22;29684;47.722;9.388;2024-02-15T18:47:19;9.30;99.90
8662;DHT22;29684;47.722;9.388;2024-02-15T18:50:05;9.20;99.90
8662;DHT22;29684;47.722;9.388;2024-02-15T18:52:53;9.10;99.90
8662;DHT22;29684;47.722;9.388;2024-02-15T18:55:42;9.10;99.90
8662;DHT22;29684;47.722;9.388;2024-02-15T18:58:26;9.00;99.90
8662;DHT22;29684;47.722;9.388;2024-02-15T19:01:12;8.90;99.90
8662;DHT22;29684;47.722;9.388;2024-02-15T19:03:57;8.90;99.90
8662;DHT22;29684;47.722;9.388;2024-02-15T19:06:41;8.90;99.90
8662;DHT22;29684;47.722;9.388;2024-02-15T19:09:25;8.80;99.90
8662;DHT22;29684;47.722;9.388;2024-02-15T19:12:09;8.80;99.90
8662;DHT22;29684;47.722;9.388;2024-02-15T19:14:55;8.80;99.90
8662;DHT22;29684;47.722;9.388;2024-02-15T19:17:42;8.80;99.90
8662;DHT22;29684;47.722;9.388;2024-02-15T19:20:29;8.80;99.90
8662;DHT22;29684;47.722;9.388;2024-02-15T19:23:13;8.70;99.90
8662;DHT22;29684;47.722;9.388;2024-02-15T19:25:57;8.60;99.90
8662;DHT22;29684;47.722;9.388;2024-02-15T19:28:41;8.50;99.90
8662;DHT22;29684;47.722;9.388;2024-02-15T19:31:27;8.50;99.90
8662;DHT22;29684;47.722;9.388;2024-02-15T19:34:11;8.50;99.90
8662;DHT22;29684;47.722;9.388;2024-02-15T19:36:56;8.50;99.90
8662;DHT22;29684;47.722;9.388;2024-02-15T19:39:45;8.40;99.90
8662;DHT22;29684;47.722;9.388;2024-02-15T19:42:35;8.30;99.90
8662;DHT22;29684;47.722;9.388;2024-02-15T19:45:20;8.20;99.90
8662;DHT22;29684;47.722;9.388;2024-02-15T19:48:04;8.20;99.90
8662;DHT22;29684;47.722;9.388;2024-02-15T19:50:49;8.10;99.90
8662;DHT22;29684;47.722;9.388;2024-02-15T19:53:33;8.10;99.90
8662;DHT22;29684;47.722;9.388;2024-02-15T19:56:17;8.10;99.90
8662;DHT22;29684;47.722;9.388;2024-02-15T19:59:01;8.20;99.90
8662;DHT22;29684;47.722;9.388;2024-02-15T20:01:47;8.10;99.90
8662;DHT22;29684;47.722;9.388;2024-02-15T20:04:32;8.00;99.90